sensor_id;sensor_type;location;lat;lon;timestamp;pressure;altitude;pressure_sealevel;temperature;humidity
30744;BME280;17486;46.738;7.622;2023-01-29T00:01:07;95833.63;;;1.56;55.04
30744;BME280;17486;46.738;7.622;2023-01-29T00:03:33;95867.75;;;1.73;54.94
30744;BME280;17486;46.738;7.622;2023-01-29T00:05:59;95860.06;;;1.72;54.34
30744;BME280;17486;46.738;7.622;2023-01-29T00:08:25;95803.81;;;1.42;54.85
30744;BME280;17486;46.738;7.622;2023-01-29T00:10:51;95805.50;;;1.45;54.69
30744;BME280;17486;46.738;7.622;2023-01-29T00:13:16;95845.53;;;1.71;54.57
30744;BME280;17486;46.738;7.622;2023-01-29T00:15:42;95800.38;;;1.43;54.72
30744;BME280;17486;46.738;7.622;2023-01-29T00:18:07;95800.38;;;1.43;54.75
30744;BME280;17486;46.738;7.622;2023-01-29T00:20:33;95803.78;;;1.45;54.98
30744;BME280;17486;46.738;7.622;2023-01-29T00:22:58;95805.53;;;1.42;54.98
30744;BME280;17486;46.738;7.622;2023-01-29T00:25:24;95808.06;;;1.43;54.58
30744;BME280;17486;46.738;7.622;2023-01-29T00:27:50;95848.97;;;1.70;54.67
30744;BME280;17486;46.738;7.622;2023-01-29T00:30:16;95861.78;;;1.70;54.61
30744;BME280;17486;46.738;7.622;2023-01-29T00:32:44;95810.66;;;1.42;54.59
30744;BME280;17486;46.738;7.622;2023-01-29T00:35:10;95818.34;;;1.42;54.64
30744;BME280;17486;46.738;7.622;2023-01-29T00:37:35;95820.91;;;1.42;54.48
30744;BME280;17486;46.738;7.622;2023-01-29T00:40:01;95864.34;;;1.65;54.92
30744;BME280;17486;46.738;7.622;2023-01-29T00:42:27;95802.13;;;1.38;54.68
30744;BME280;17486;46.738;7.622;2023-01-29T00:45:11;95808.94;;;1.36;54.50
30744;BME280;17486;46.738;7.622;2023-01-29T00:47:37;95849.84;;;1.62;54.81
30744;BME280;17486;46.738;7.622;2023-01-29T00:50:05;95843.03;;;1.57;54.84
30744;BME280;17486;46.738;7.622;2023-01-29T00:52:31;95850.72;;;1.63;54.98
30744;BME280;17486;46.738;7.622;2023-01-29T00:54:59;95803.84;;;1.35;55.05
30744;BME280;17486;46.738;7.622;2023-01-29T00:57:26;95855.84;;;1.63;54.67
30744;BME280;17486;46.738;7.622;2023-01-29T00:59:51;95849.84;;;1.61;54.97
30744;BME280;17486;46.738;7.622;2023-01-29T01:02:18;95803.00;;;1.34;54.83
30744;BME280;17486;46.738;7.622;2023-01-29T01:05:03;95850.72;;;1.60;54.76
30744;BME280;17486;46.738;7.622;2023-01-29T01:07:30;95821.78;;;1.39;54.60
30744;BME280;17486;46.738;7.622;2023-01-29T01:09:56;95862.66;;;1.64;54.95
30744;BME280;17486;46.738;7.622;2023-01-29T01:12:40;95821.78;;;1.38;55.02
30744;BME280;17486;46.738;7.622;2023-01-29T01:15:05;95837.97;;;1.46;55.07
30744;BME280;17486;46.738;7.622;2023-01-29T01:17:31;95866.13;;;1.60;55.33
30744;BME280;17486;46.738;7.622;2023-01-29T01:19:56;95844.78;;;1.50;54.62
30744;BME280;17486;46.738;7.622;2023-01-29T01:22:22;95844.78;;;1.45;54.98
30744;BME280;17486;46.738;7.622;2023-01-29T01:24:47;95870.34;;;1.65;55.10
30744;BME280;17486;46.738;7.622;2023-01-29T01:27:12;95878.03;;;1.67;55.13
30744;BME280;17486;46.738;7.622;2023-01-29T01:29:38;95869.53;;;1.59;54.63
30744;BME280;17486;46.738;7.622;2023-01-29T01:32:04;95882.31;;;1.63;54.90
30744;BME280;17486;46.738;7.622;2023-01-29T01:34:30;95895.97;;;1.62;54.60
30744;BME280;17486;46.738;7.622;2023-01-29T01:36:55;95832.03;;;1.33;54.88
30744;BME280;17486;46.738;7.622;2023-01-29T01:39:22;95815.84;;;1.22;54.87
30744;BME280;17486;46.738;7.622;2023-01-29T01:41:47;95890.84;;;1.62;54.87
30744;BME280;17486;46.738;7.622;2023-01-29T01:44:54;95887.44;;;1.63;55.25
30744;BME280;17486;46.738;7.622;2023-01-29T01:47:40;95884.03;;;1.63;55.06
30744;BME280;17486;46.738;7.622;2023-01-29T01:50:13;95869.53;;;1.57;55.06
30744;BME280;17486;46.738;7.622;2023-01-29T01:52:46;95881.47;;;1.61;55.09
30744;BME280;17486;46.738;7.622;2023-01-29T01:55:16;95834.59;;;1.35;54.94
30744;BME280;17486;46.738;7.622;2023-01-29T01:57:44;95878.09;;;1.50;54.85
30744;BME280;17486;46.738;7.622;2023-01-29T02:00:14;95884.94;;;1.53;54.69
30744;BME280;17486;46.738;7.622;2023-01-29T02:02:43;95907.97;;;1.62;54.54
30744;BME280;17486;46.738;7.622;2023-01-29T02:05:29;95865.31;;;1.41;54.87
30744;BME280;17486;46.738;7.622;2023-01-29T02:08:23;95915.66;;;1.62;55.12
30744;BME280;17486;46.738;7.622;2023-01-29T02:11:10;95909.69;;;1.55;55.23
30744;BME280;17486;46.738;7.622;2023-01-29T02:13:36;95888.38;;;1.42;55.24
30744;BME280;17486;46.738;7.622;2023-01-29T02:16:01;95929.31;;;1.67;54.73
30744;BME280;17486;46.738;7.622;2023-01-29T02:18:27;95882.41;;;1.39;55.16
30744;BME280;17486;46.738;7.622;2023-01-29T02:21:06;95931.88;;;1.62;55.00
30744;BME280;17486;46.738;7.622;2023-01-29T02:26:39;95939.59;;;1.64;54.87
30744;BME280;17486;46.738;7.622;2023-01-29T02:32:23;95937.00;;;1.65;55.05
30744;BME280;17486;46.738;7.622;2023-01-29T02:34:59;95941.25;;;1.65;55.10
30744;BME280;17486;46.738;7.622;2023-01-29T02:40:39;95944.72;;;1.64;54.95
30744;BME280;17486;46.738;7.622;2023-01-29T02:48:36;95951.53;;;1.62;54.89
30744;BME280;17486;46.738;7.622;2023-01-29T02:51:09;95941.25;;;1.65;55.00
30744;BME280;17486;46.738;7.622;2023-01-29T02:53:45;95951.53;;;1.62;55.26
30744;BME280;17486;46.738;7.622;2023-01-29T02:56:17;95925.94;;;1.51;54.83
30744;BME280;17486;46.738;7.622;2023-01-29T02:58:48;95912.31;;;1.44;55.11
30744;BME280;17486;46.738;7.622;2023-01-29T03:01:29;95947.25;;;1.67;55.39
30744;BME280;17486;46.738;7.622;2023-01-29T03:04:02;95958.38;;;1.66;55.10
30744;BME280;17486;46.738;7.622;2023-01-29T03:06:38;95903.75;;;1.41;54.95
30744;BME280;17486;46.738;7.622;2023-01-29T03:09:21;95940.41;;;1.68;54.94
30744;BME280;17486;46.738;7.622;2023-01-29T03:11:51;95948.09;;;1.71;55.05
30744;BME280;17486;46.738;7.622;2023-01-29T03:14:24;95904.59;;;1.47;55.11
30744;BME280;17486;46.738;7.622;2023-01-29T03:17:14;95932.72;;;1.72;54.90
30744;BME280;17486;46.738;7.622;2023-01-29T03:19:42;95901.16;;;1.45;54.98
30744;BME280;17486;46.738;7.622;2023-01-29T03:22:09;95896.94;;;1.44;55.33
30744;BME280;17486;46.738;7.622;2023-01-29T03:24:49;95894.38;;;1.44;55.12
30744;BME280;17486;46.738;7.622;2023-01-29T03:30:27;95918.19;;;1.65;55.20
30744;BME280;17486;46.738;7.622;2023-01-29T03:33:14;95870.47;;;1.39;54.84
30744;BME280;17486;46.738;7.622;2023-01-29T03:35:50;95927.59;;;1.66;54.85
30744;BME280;17486;46.738;7.622;2023-01-29T03:38:17;95874.69;;;1.46;54.91
30744;BME280;17486;46.738;7.622;2023-01-29T03:40:57;95876.44;;;1.44;55.22
30744;BME280;17486;46.738;7.622;2023-01-29T03:46:49;95882.38;;;1.51;55.31
30744;BME280;17486;46.738;7.622;2023-01-29T03:51:26;95895.13;;;1.67;55.10
30744;BME280;17486;46.738;7.622;2023-01-29T03:59:21;95925.03;;;1.68;54.77
30744;BME280;17486;46.738;7.622;2023-01-29T04:01:51;95905.38;;;1.63;55.32
30744;BME280;17486;46.738;7.622;2023-01-29T04:06:49;95904.56;;;1.55;55.23
30744;BME280;17486;46.738;7.622;2023-01-29T04:09:29;95918.22;;;1.60;55.37
30744;BME280;17486;46.738;7.622;2023-01-29T04:12:03;95857.66;;;1.33;55.58
30744;BME280;17486;46.738;7.622;2023-01-29T04:14:31;95862.78;;;1.38;55.40
30744;BME280;17486;46.738;7.622;2023-01-29T04:16:59;95860.25;;;1.30;55.32
30744;BME280;17486;46.738;7.622;2023-01-29T04:19:27;95896.06;;;1.48;55.45
30744;BME280;17486;46.738;7.622;2023-01-29T04:22:06;95905.41;;;1.56;55.56
30744;BME280;17486;46.738;7.622;2023-01-29T04:24:34;95920.78;;;1.62;55.88
30744;BME280;17486;46.738;7.622;2023-01-29T04:33:02;95904.56;;;1.60;55.54
30744;BME280;17486;46.738;7.622;2023-01-29T04:35:43;95902.81;;;1.63;55.82
30744;BME280;17486;46.738;7.622;2023-01-29T04:44:41;95886.63;;;1.60;55.55
30744;BME280;17486;46.738;7.622;2023-01-29T04:50:15;95897.69;;;1.68;55.28
30744;BME280;17486;46.738;7.622;2023-01-29T04:53:03;95897.69;;;1.68;55.79
30744;BME280;17486;46.738;7.622;2023-01-29T05:00:44;95863.63;;;1.43;55.15
30744;BME280;17486;46.738;7.622;2023-01-29T05:03:14;95855.91;;;1.41;55.95
30744;BME280;17486;46.738;7.622;2023-01-29T05:05:43;95887.44;;;1.62;55.50
30744;BME280;17486;46.738;7.622;2023-01-29T05:08:11;95879.75;;;1.62;56.01
30744;BME280;17486;46.738;7.622;2023-01-29T05:10:38;95851.66;;;1.42;55.75
30744;BME280;17486;46.738;7.622;2023-01-29T05:13:05;95898.53;;;1.67;56.07
30744;BME280;17486;46.738;7.622;2023-01-29T05:15:36;95884.03;;;1.61;56.16
30744;BME280;17486;46.738;7.622;2023-01-29T05:18:03;95873.00;;;1.42;55.78
30744;BME280;17486;46.738;7.622;2023-01-29T05:20:38;95909.66;;;1.64;55.88
30744;BME280;17486;46.738;7.622;2023-01-29T05:23:08;95923.31;;;1.65;55.97
30744;BME280;17486;46.738;7.622;2023-01-29T05:25:34;95919.06;;;1.65;56.13
30744;BME280;17486;46.738;7.622;2023-01-29T05:28:00;95894.34;;;1.49;55.86
30744;BME280;17486;46.738;7.622;2023-01-29T05:30:30;95876.44;;;1.37;55.95
30744;BME280;17486;46.738;7.622;2023-01-29T05:32:56;95942.16;;;1.64;56.11
30744;BME280;17486;46.738;7.622;2023-01-29T05:35:21;95943.84;;;1.63;56.09
30744;BME280;17486;46.738;7.622;2023-01-29T05:37:46;95960.09;;;1.64;56.23
30744;BME280;17486;46.738;7.622;2023-01-29T05:40:12;95908.91;;;1.39;56.50
30744;BME280;17486;46.738;7.622;2023-01-29T05:42:37;95953.25;;;1.63;56.40
30744;BME280;17486;46.738;7.622;2023-01-29T05:45:03;95910.63;;;1.40;56.59
30744;BME280;17486;46.738;7.622;2023-01-29T05:47:29;95964.38;;;1.60;56.31
30744;BME280;17486;46.738;7.622;2023-01-29T05:49:54;95954.09;;;1.65;56.55
30744;BME280;17486;46.738;7.622;2023-01-29T05:52:20;95964.34;;;1.65;56.47
30744;BME280;17486;46.738;7.622;2023-01-29T05:54:45;95925.13;;;1.38;56.49
30744;BME280;17486;46.738;7.622;2023-01-29T05:57:10;95930.28;;;1.35;56.38
30744;BME280;17486;46.738;7.622;2023-01-29T05:59:36;95975.50;;;1.56;56.14
30744;BME280;17486;46.738;7.622;2023-01-29T06:02:01;95972.06;;;1.62;56.15
30744;BME280;17486;46.738;7.622;2023-01-29T06:04:26;95982.31;;;1.62;56.17
30744;BME280;17486;46.738;7.622;2023-01-29T06:06:52;95976.34;;;1.54;56.72
30744;BME280;17486;46.738;7.622;2023-01-29T06:09:17;95964.41;;;1.43;56.50
30744;BME280;17486;46.738;7.622;2023-01-29T06:11:43;95996.84;;;1.57;56.39
30744;BME280;17486;46.738;7.622;2023-01-29T06:14:08;95995.13;;;1.60;56.60
30744;BME280;17486;46.738;7.622;2023-01-29T06:16:33;95998.56;;;1.59;56.45
30744;BME280;17486;46.738;7.622;2023-01-29T06:18:59;95965.28;;;1.33;56.73
30744;BME280;17486;46.738;7.622;2023-01-29T06:21:24;96009.69;;;1.60;56.61
30744;BME280;17486;46.738;7.622;2023-01-29T06:23:51;95975.53;;;1.38;56.26
30744;BME280;17486;46.738;7.622;2023-01-29T06:26:18;96015.63;;;1.56;56.36
30744;BME280;17486;46.738;7.622;2023-01-29T06:28:43;96011.41;;;1.55;56.66
30744;BME280;17486;46.738;7.622;2023-01-29T06:31:10;96025.06;;;1.60;56.49
30744;BME280;17486;46.738;7.622;2023-01-29T06:33:35;96026.72;;;1.62;56.36
30744;BME280;17486;46.738;7.622;2023-01-29T06:36:03;95994.34;;;1.37;56.30
30744;BME280;17486;46.738;7.622;2023-01-29T06:38:29;96046.41;;;1.60;56.50
30744;BME280;17486;46.738;7.622;2023-01-29T06:40:55;96037.00;;;1.59;56.12
30744;BME280;17486;46.738;7.622;2023-01-29T06:43:21;96006.28;;;1.39;56.39
30744;BME280;17486;46.738;7.622;2023-01-29T06:45:55;96013.97;;;1.44;56.42
30744;BME280;17486;46.738;7.622;2023-01-29T06:48:22;96060.94;;;1.63;56.13
30744;BME280;17486;46.738;7.622;2023-01-29T06:50:48;96017.41;;;1.43;56.23
30744;BME280;17486;46.738;7.622;2023-01-29T06:53:15;96051.53;;;1.63;56.55
30744;BME280;17486;46.738;7.622;2023-01-29T06:55:43;96054.94;;;1.67;56.37
30744;BME280;17486;46.738;7.622;2023-01-29T06:58:10;96055.78;;;1.66;56.22
30744;BME280;17486;46.738;7.622;2023-01-29T07:00:36;96060.91;;;1.66;56.32
30744;BME280;17486;46.738;7.622;2023-01-29T07:03:03;96041.28;;;1.59;56.32
30744;BME280;17486;46.738;7.622;2023-01-29T07:05:28;96008.00;;;1.42;56.05
30744;BME280;17486;46.738;7.622;2023-01-29T07:07:54;96044.69;;;1.61;55.73
30744;BME280;17486;46.738;7.622;2023-01-29T07:10:20;96044.72;;;1.56;55.99
30744;BME280;17486;46.738;7.622;2023-01-29T07:12:45;96013.97;;;1.42;56.11
30744;BME280;17486;46.738;7.622;2023-01-29T07:15:12;96020.81;;;1.40;56.01
30744;BME280;17486;46.738;7.622;2023-01-29T07:17:38;96017.41;;;1.43;55.83
30744;BME280;17486;46.738;7.622;2023-01-29T07:20:04;96019.09;;;1.42;55.73
30744;BME280;17486;46.738;7.622;2023-01-29T07:22:30;96023.38;;;1.43;55.91
30744;BME280;17486;46.738;7.622;2023-01-29T07:24:55;96015.66;;;1.45;55.43
30744;BME280;17486;46.738;7.622;2023-01-29T07:27:21;96024.22;;;1.39;55.87
30744;BME280;17486;46.738;7.622;2023-01-29T07:29:46;96068.66;;;1.60;55.68
30744;BME280;17486;46.738;7.622;2023-01-29T07:32:11;96060.94;;;1.54;55.95
30744;BME280;17486;46.738;7.622;2023-01-29T07:34:37;96023.38;;;1.31;56.11
30744;BME280;17486;46.738;7.622;2023-01-29T07:37:02;96012.28;;;1.21;55.67
30744;BME280;17486;46.738;7.622;2023-01-29T07:39:30;96051.56;;;1.45;55.77
30744;BME280;17486;46.738;7.622;2023-01-29T07:41:55;96060.09;;;1.35;55.47
30744;BME280;17486;46.738;7.622;2023-01-29T07:44:20;96039.59;;;1.35;55.15
30744;BME280;17486;46.738;7.622;2023-01-29T07:46:46;95987.53;;;1.08;55.01
30744;BME280;17486;46.738;7.622;2023-01-29T07:49:11;96020.84;;;1.23;54.45
30744;BME280;17486;46.738;7.622;2023-01-29T07:51:37;95989.22;;;1.07;54.37
30744;BME280;17486;46.738;7.622;2023-01-29T07:54:02;96008.03;;;1.15;54.50
30744;BME280;17486;46.738;7.622;2023-01-29T07:56:28;96006.31;;;1.16;54.25
30744;BME280;17486;46.738;7.622;2023-01-29T07:58:53;95958.50;;;0.90;53.74
30744;BME280;17486;46.738;7.622;2023-01-29T08:01:18;95964.47;;;0.95;53.72
30744;BME280;17486;46.738;7.622;2023-01-29T08:03:44;95991.78;;;1.18;54.15
30744;BME280;17486;46.738;7.622;2023-01-29T08:06:09;96007.97;;;1.31;53.89
30744;BME280;17486;46.738;7.622;2023-01-29T08:08:35;96002.88;;;1.34;53.45
30744;BME280;17486;46.738;7.622;2023-01-29T08:11:01;95995.19;;;1.34;52.97
30744;BME280;17486;46.738;7.622;2023-01-29T08:13:27;95996.03;;;1.42;52.89
30744;BME280;17486;46.738;7.622;2023-01-29T08:15:52;95963.59;;;1.26;53.30
30744;BME280;17486;46.738;7.622;2023-01-29T08:18:18;95967.84;;;1.33;52.06
30744;BME280;17486;46.738;7.622;2023-01-29T08:20:43;96007.94;;;1.56;51.60
30744;BME280;17486;46.738;7.622;2023-01-29T08:23:14;95997.72;;;1.48;51.41
30744;BME280;17486;46.738;7.622;2023-01-29T08:25:41;96019.06;;;1.58;51.00
30744;BME280;17486;46.738;7.622;2023-01-29T08:28:06;96002.84;;;1.59;50.84
30744;BME280;17486;46.738;7.622;2023-01-29T08:30:33;96007.97;;;1.60;50.59
30744;BME280;17486;46.738;7.622;2023-01-29T08:32:59;95965.28;;;1.33;50.98
30744;BME280;17486;46.738;7.622;2023-01-29T08:35:25;96012.22;;;1.69;50.60
30744;BME280;17486;46.738;7.622;2023-01-29T08:38:01;96013.03;;;1.77;50.07
30744;BME280;17486;46.738;7.622;2023-01-29T08:40:28;96011.34;;;1.81;50.25
30744;BME280;17486;46.738;7.622;2023-01-29T08:43:03;95965.19;;;1.69;50.13
30744;BME280;17486;46.738;7.622;2023-01-29T08:45:30;96001.91;;;1.81;49.81
30744;BME280;17486;46.738;7.622;2023-01-29T08:47:57;96003.59;;;1.87;49.92
30744;BME280;17486;46.738;7.622;2023-01-29T08:50:23;96007.88;;;1.87;49.78
30744;BME280;17486;46.738;7.622;2023-01-29T08:52:48;95964.34;;;1.65;49.92
30744;BME280;17486;46.738;7.622;2023-01-29T08:55:13;95953.28;;;1.54;49.64
30744;BME280;17486;46.738;7.622;2023-01-29T08:57:39;95995.09;;;1.77;50.03
30744;BME280;17486;46.738;7.622;2023-01-29T09:00:05;95995.06;;;1.84;50.00
30744;BME280;17486;46.738;7.622;2023-01-29T09:02:32;96001.88;;;1.91;49.83
30744;BME280;17486;46.738;7.622;2023-01-29T09:04:58;95971.19;;;1.69;49.53
30744;BME280;17486;46.738;7.622;2023-01-29T09:07:23;95973.78;;;1.63;49.39
30744;BME280;17486;46.738;7.622;2023-01-29T09:09:48;96011.28;;;1.87;49.69
30744;BME280;17486;46.738;7.622;2023-01-29T09:12:14;96004.44;;;1.97;49.90
30744;BME280;17486;46.738;7.622;2023-01-29T09:14:39;96010.34;;;2.08;50.16
30744;BME280;17486;46.738;7.622;2023-01-29T09:17:05;96015.44;;;2.22;49.86
30744;BME280;17486;46.738;7.622;2023-01-29T09:19:30;96011.97;;;2.28;49.73
30744;BME280;17486;46.738;7.622;2023-01-29T09:21:55;96012.81;;;2.36;49.22
30744;BME280;17486;46.738;7.622;2023-01-29T09:24:21;95980.34;;;2.27;49.95
30744;BME280;17486;46.738;7.622;2023-01-29T09:26:46;96000.69;;;2.60;49.03
30744;BME280;17486;46.738;7.622;2023-01-29T09:29:12;96020.28;;;2.78;48.52
30744;BME280;17486;46.738;7.622;2023-01-29T09:31:37;95998.94;;;2.71;48.25
30744;BME280;17486;46.738;7.622;2023-01-29T09:34:02;96014.13;;;2.99;48.49
30744;BME280;17486;46.738;7.622;2023-01-29T09:36:28;96037.03;;;3.27;48.18
30744;BME280;17486;46.738;7.622;2023-01-29T09:38:53;96032.75;;;3.30;47.41
30744;BME280;17486;46.738;7.622;2023-01-29T09:43:55;96008.63;;;3.44;47.66
30744;BME280;17486;46.738;7.622;2023-01-29T09:49:06;96025.44;;;3.77;47.16
30744;BME280;17486;46.738;7.622;2023-01-29T09:51:40;96064.66;;;4.01;46.61
30744;BME280;17486;46.738;7.622;2023-01-29T09:54:21;96073.19;;;4.03;46.68
30744;BME280;17486;46.738;7.622;2023-01-29T09:56:50;96042.50;;;3.85;46.29
30744;BME280;17486;46.738;7.622;2023-01-29T09:59:20;96075.66;;;4.12;46.59
30744;BME280;17486;46.738;7.622;2023-01-29T10:01:54;96092.69;;;4.24;46.42
30744;BME280;17486;46.738;7.622;2023-01-29T10:07:25;96040.53;;;4.08;45.81
30744;BME280;17486;46.738;7.622;2023-01-29T10:10:32;96091.66;;;4.42;45.59
30744;BME280;17486;46.738;7.622;2023-01-29T10:23:36;96108.69;;;4.53;45.58
30744;BME280;17486;46.738;7.622;2023-01-29T10:26:02;96059.25;;;4.26;45.77
30744;BME280;17486;46.738;7.622;2023-01-29T10:28:37;96107.88;;;4.52;45.80
30744;BME280;17486;46.738;7.622;2023-01-29T10:34:22;96103.66;;;4.43;46.02
30744;BME280;17486;46.738;7.622;2023-01-29T10:36:50;96104.56;;;4.39;46.05
30744;BME280;17486;46.738;7.622;2023-01-29T10:39:17;96111.50;;;4.34;46.10
30744;BME280;17486;46.738;7.622;2023-01-29T11:00:54;96080.28;;;3.79;46.89
30744;BME280;17486;46.738;7.622;2023-01-29T11:03:22;96111.91;;;3.94;47.05
30744;BME280;17486;46.738;7.622;2023-01-29T11:06:16;96088.91;;;3.75;47.22
30744;BME280;17486;46.738;7.622;2023-01-29T11:09:02;96077.81;;;3.70;47.13
30744;BME280;17486;46.738;7.622;2023-01-29T11:11:49;96116.16;;;3.98;47.33
30744;BME280;17486;46.738;7.622;2023-01-29T11:16:47;96084.66;;;3.71;46.95
30744;BME280;17486;46.738;7.622;2023-01-29T11:19:14;96126.53;;;3.89;47.27
30744;BME280;17486;46.738;7.622;2023-01-29T11:22:00;96085.56;;;3.67;47.19
30744;BME280;17486;46.738;7.622;2023-01-29T11:24:26;96123.09;;;3.90;47.25
30744;BME280;17486;46.738;7.622;2023-01-29T11:26:54;96098.31;;;3.79;47.19
30744;BME280;17486;46.738;7.622;2023-01-29T11:29:37;96073.59;;;3.63;47.23
30744;BME280;17486;46.738;7.622;2023-01-29T11:32:11;96096.69;;;3.69;47.35
30744;BME280;17486;46.738;7.622;2023-01-29T11:37:35;96081.25;;;3.69;47.13
30744;BME280;17486;46.738;7.622;2023-01-29T11:40:11;96113.66;;;3.89;47.37
30744;BME280;17486;46.738;7.622;2023-01-29T11:42:48;96077.88;;;3.65;47.09
30744;BME280;17486;46.738;7.622;2023-01-29T11:45:26;96099.97;;;3.84;47.43
30744;BME280;17486;46.738;7.622;2023-01-29T11:47:55;96099.97;;;3.85;47.40
30744;BME280;17486;46.738;7.622;2023-01-29T11:50:26;96098.41;;;3.70;46.89
30744;BME280;17486;46.738;7.622;2023-01-29T11:52:53;96100.22;;;3.60;47.04
30744;BME280;17486;46.738;7.622;2023-01-29T11:55:29;96103.66;;;3.58;47.34
30744;BME280;17486;46.738;7.622;2023-01-29T11:58:16;96049.06;;;3.26;47.11
30744;BME280;17486;46.738;7.622;2023-01-29T12:00:46;96074.63;;;3.40;47.46
30744;BME280;17486;46.738;7.622;2023-01-29T12:05:53;96054.38;;;3.03;46.94
30744;BME280;17486;46.738;7.622;2023-01-29T12:08:19;96083.34;;;3.21;46.84
30744;BME280;17486;46.738;7.622;2023-01-29T12:10:47;96066.25;;;3.15;47.32
30744;BME280;17486;46.738;7.622;2023-01-29T12:15:44;96035.41;;;3.17;47.06
30744;BME280;17486;46.738;7.622;2023-01-29T12:20:55;96067.56;;;3.64;46.96
30744;BME280;17486;46.738;7.622;2023-01-29T12:26:14;96037.56;;;3.64;46.50
30744;BME280;17486;46.738;7.622;2023-01-29T12:28:58;96025.53;;;3.67;46.42
30744;BME280;17486;46.738;7.622;2023-01-29T12:32:04;96045.06;;;3.89;46.38
30744;BME280;17486;46.738;7.622;2023-01-29T12:34:44;96038.00;;;4.05;46.61
30744;BME280;17486;46.738;7.622;2023-01-29T12:37:26;96043.00;;;4.21;46.04
30744;BME280;17486;46.738;7.622;2023-01-29T12:39:54;96013.72;;;4.26;45.98
30744;BME280;17486;46.738;7.622;2023-01-29T12:42:21;96009.28;;;4.39;46.15
30744;BME280;17486;46.738;7.622;2023-01-29T12:47:34;96017.47;;;4.69;45.21
30744;BME280;17486;46.738;7.622;2023-01-29T12:50:06;95972.06;;;4.60;45.27
30744;BME280;17486;46.738;7.622;2023-01-29T12:52:41;96011.16;;;4.90;44.43
30744;BME280;17486;46.738;7.622;2023-01-29T12:55:23;96016.28;;;4.92;44.87
30744;BME280;17486;46.738;7.622;2023-01-29T12:57:58;96013.63;;;4.98;44.60
30744;BME280;17486;46.738;7.622;2023-01-29T13:00:28;95997.25;;;4.99;44.49
30744;BME280;17486;46.738;7.622;2023-01-29T13:03:33;95978.38;;;4.98;44.78
30744;BME280;17486;46.738;7.622;2023-01-29T13:06:09;95967.97;;;5.05;44.88
30744;BME280;17486;46.738;7.622;2023-01-29T13:08:40;95964.38;;;5.13;44.63
30744;BME280;17486;46.738;7.622;2023-01-29T13:11:11;96000.09;;;5.37;44.43
30744;BME280;17486;46.738;7.622;2023-01-29T13:16:22;95999.97;;;5.44;43.66
30744;BME280;17486;46.738;7.622;2023-01-29T13:18:58;95969.25;;;5.30;44.35
30744;BME280;17486;46.738;7.622;2023-01-29T13:21:30;95963.31;;;5.27;43.50
30744;BME280;17486;46.738;7.622;2023-01-29T13:24:03;95961.56;;;5.27;43.35
30744;BME280;17486;46.738;7.622;2023-01-29T13:26:29;95949.41;;;5.34;43.97
30744;BME280;17486;46.738;7.622;2023-01-29T13:28:56;95956.03;;;5.47;43.69
30744;BME280;17486;46.738;7.622;2023-01-29T13:31:32;96005.44;;;5.76;44.02
30744;BME280;17486;46.738;7.622;2023-01-29T13:36:42;95962.38;;;5.76;43.87
30744;BME280;17486;46.738;7.622;2023-01-29T13:42:00;95999.81;;;6.02;42.73
30744;BME280;17486;46.738;7.622;2023-01-29T13:44:32;96000.63;;;6.04;42.65
30744;BME280;17486;46.738;7.622;2023-01-29T13:46:59;96019.56;;;6.05;43.25
30744;BME280;17486;46.738;7.622;2023-01-29T13:49:44;96018.63;;;6.07;42.90
30744;BME280;17486;46.738;7.622;2023-01-29T13:54:59;96007.56;;;6.02;42.47
30744;BME280;17486;46.738;7.622;2023-01-29T14:02:47;96022.31;;;5.94;42.48
30744;BME280;17486;46.738;7.622;2023-01-29T14:13:44;96015.84;;;5.70;42.59
30744;BME280;17486;46.738;7.622;2023-01-29T14:18:45;96020.44;;;5.54;43.29
30744;BME280;17486;46.738;7.622;2023-01-29T14:21:27;96006.06;;;5.40;42.73
30744;BME280;17486;46.738;7.622;2023-01-29T14:24:20;96030.22;;;5.36;42.99
30744;BME280;17486;46.738;7.622;2023-01-29T14:26:48;95985.19;;;5.03;43.07
30744;BME280;17486;46.738;7.622;2023-01-29T14:29:25;96023.63;;;5.18;43.46
30744;BME280;17486;46.738;7.622;2023-01-29T14:31:57;96028.88;;;5.10;43.57
30744;BME280;17486;46.738;7.622;2023-01-29T14:34:27;96016.09;;;5.03;43.53
30744;BME280;17486;46.738;7.622;2023-01-29T14:37:01;96010.28;;;4.91;43.74
30744;BME280;17486;46.738;7.622;2023-01-29T14:39:33;96018.00;;;4.93;43.75
30744;BME280;17486;46.738;7.622;2023-01-29T14:42:01;95984.78;;;4.71;43.24
30744;BME280;17486;46.738;7.622;2023-01-29T14:49:57;96017.28;;;4.81;43.92
30744;BME280;17486;46.738;7.622;2023-01-29T14:52:39;96017.34;;;4.78;43.95
30744;BME280;17486;46.738;7.622;2023-01-29T14:55:24;95972.97;;;4.58;44.42
30744;BME280;17486;46.738;7.622;2023-01-29T14:57:51;96011.28;;;4.81;43.86
30744;BME280;17486;46.738;7.622;2023-01-29T15:00:25;95978.72;;;4.75;44.40
30744;BME280;17486;46.738;7.622;2023-01-29T15:02:51;95997.28;;;4.97;44.38
30744;BME280;17486;46.738;7.622;2023-01-29T15:05:20;96000.63;;;5.04;44.17
30744;BME280;17486;46.738;7.622;2023-01-29T15:07:54;96013.41;;;5.10;43.87
30744;BME280;17486;46.738;7.622;2023-01-29T15:13:13;95957.16;;;4.82;44.31
30744;BME280;17486;46.738;7.622;2023-01-29T15:16:03;96008.28;;;5.09;43.78
30744;BME280;17486;46.738;7.622;2023-01-29T15:18:33;95974.09;;;4.96;44.24
30744;BME280;17486;46.738;7.622;2023-01-29T15:21:02;95988.59;;;5.05;43.66
30744;BME280;17486;46.738;7.622;2023-01-29T15:23:31;95955.47;;;4.80;43.63
30744;BME280;17486;46.738;7.622;2023-01-29T15:26:02;95953.81;;;4.76;43.90
30744;BME280;17486;46.738;7.622;2023-01-29T15:28:30;95976.91;;;4.82;43.89
30744;BME280;17486;46.738;7.622;2023-01-29T15:30:56;95944.56;;;4.61;44.09
30744;BME280;17486;46.738;7.622;2023-01-29T15:33:23;95972.66;;;4.79;43.95
30744;BME280;17486;46.738;7.622;2023-01-29T15:35:55;96000.09;;;4.82;44.45
30744;BME280;17486;46.738;7.622;2023-01-29T15:38:22;95992.38;;;4.80;44.01
30744;BME280;17486;46.738;7.622;2023-01-29T15:41:01;95979.69;;;4.68;44.48
30744;BME280;17486;46.738;7.622;2023-01-29T15:46:19;95998.59;;;4.67;44.61
30744;BME280;17486;46.738;7.622;2023-01-29T15:48:46;96003.00;;;4.59;44.08
30744;BME280;17486;46.738;7.622;2023-01-29T15:51:20;96007.44;;;4.47;44.48
30744;BME280;17486;46.738;7.622;2023-01-29T15:53:51;95959.72;;;4.22;44.78
30744;BME280;17486;46.738;7.622;2023-01-29T15:56:22;95966.63;;;4.17;44.47